Springfield, Missouri
Current Conditions -  °F | °C
As of 12:52 AM on Friday 28 Nov 2014 (Local Time) from KSGF Reporting Station
Clear Clear  
Wind Chill: 25°   Ceiling: Unl
Heat Index: 34°   Visibility: 10mi
Dew Point: 22°   Wind: 14mph
Humidity: 61%   Direction: 160°SSE
Pressure: 30.27"   Gusts: NA
Location:  37.21°N, 93.29°W
Report Text: KSGF 280652Z 16012KT 10SM CLR 01/M06 A3027 RMK AO2 SLP259 T00111056
Loading
Personal Weather Stations






























Interactive Weather Map New forecast layout! Learn more

10-Day Weather Forecast

Advertisements
Track Severe Weather on mobile